PWSweather.com
Personal Weather Stations
Station Observations
KCOGRAND2
Redlands, Southcamp Road & Dakota Circle, Grand Junction, CO 81507

Redlands, Southcamp Road & Dakota CircleGrand Junction, CO 81507

Lat: 39.055, Lon: -108.637

Elevation: 4870

Station Type: RadioShack WX200

High Low Average
Temperature 70.3°F21.3°C 44.1°F6.7°C 56.8°F13.8°C
Dew Point 34.0°F1.1°C 13.8°F-10.1°C 27.1°F-2.7°C
Winds 8.0 mph 12.9 kmh Calm Calm 3.0 mph SE4.8 kmh SE
Wind Gusts 12.5 mph20.1 kmh -- 6.0 mph9.7 kmh
Humidity 62% 12% 35%
Pressure 25.28 in856.1 mb 25.16 in852.0 mb -
Precipitation 0.00 in0.0 mm - -
Hour Temp Dew Point Humidity Winds Wind Gusts Pressure Precip Precip Rate Daily Precip Total
12:03 AM 52.3°F11.3°C 26.2°F-3.2°C 36% 3.0 mph NNE4.8 kmh NNE 4.9 mph7.9 kmh 25.19 in853.0 mb 0.00 in0.0 mm 0.00 in/hr0.0 mm/hr 0.00 in0.0 mm
12:08 AM 52.3°F11.3°C 26.2°F-3.2°C 36% 2.0 mph NNE3.2 kmh NNE 4.0 mph6.4 kmh 25.19 in853.0 mb 0.00 in0.0 mm 0.00 in/hr0.0 mm/hr 0.00 in0.0 mm
12:13 AM 52.3°F11.3°C 25.5°F-3.6°C 35% Calm Calm 3.1 mph5.0 kmh 25.19 in853.0 mb 0.00 in0.0 mm 0.00 in/hr0.0 mm/hr 0.00 in0.0 mm
12:18 AM 52.2°F11.2°C 26.1°F-3.3°C 36% Calm Calm -- 25.19 in853.0 mb 0.00 in0.0 mm 0.00 in/hr0.0 mm/hr 0.00 in0.0 mm
12:23 AM 52.0°F11.1°C 25.9°F-3.4°C 36% Calm Calm 3.1 mph5.0 kmh 25.19 in853.0 mb 0.00 in0.0 mm 0.00 in/hr0.0 mm/hr 0.00 in0.0 mm
12:28 AM 52.9°F11.6°C 24.6°F-4.1°C 33% 1.0 mph NNE1.6 kmh NNE 3.1 mph5.0 kmh 25.19 in853.0 mb 0.00 in0.0 mm 0.00 in/hr0.0 mm/hr 0.00 in0.0 mm
12:33 AM 52.9°F11.6°C 23.9°F-4.5°C 32% Calm Calm -- 25.19 in853.0 mb 0.00 in0.0 mm 0.00 in/hr0.0 mm/hr 0.00 in0.0 mm
12:38 AM 53.1°F11.7°C 24.8°F-4.0°C 33% Calm Calm 4.5 mph7.2 kmh 25.19 in853.0 mb 0.00 in0.0 mm 0.00 in/hr0.0 mm/hr 0.00 in0.0 mm
12:43 AM 53.6°F12.0°C 25.2°F-3.8°C 33% 1.0 mph NNE1.6 kmh NNE 3.6 mph5.8 kmh 25.19 in853.0 mb 0.00 in0.0 mm 0.00 in/hr0.0 mm/hr 0.00 in0.0 mm
12:48 AM 52.7°F11.5°C 25.9°F-3.4°C 35% 1.0 mph NNE1.6 kmh NNE 4.5 mph7.2 kmh 25.19 in853.0 mb 0.00 in0.0 mm 0.00 in/hr0.0 mm/hr 0.00 in0.0 mm
12:53 AM 51.3°F10.7°C 25.2°F-3.8°C 36% 1.0 mph NE1.6 kmh NE 4.5 mph7.2 kmh 25.19 in853.0 mb 0.00 in0.0 mm 0.00 in/hr0.0 mm/hr 0.00 in0.0 mm
12:58 AM 50.9°F10.5°C 25.5°F-3.6°C 37% 3.0 mph NE4.8 kmh NE 5.4 mph8.7 kmh 25.19 in853.0 mb 0.00 in0.0 mm 0.00 in/hr0.0 mm/hr 0.00 in0.0 mm
01:03 AM 51.8°F11.0°C 26.4°F-3.1°C 37% 4.0 mph NE6.4 kmh NE 5.8 mph9.3 kmh 25.19 in853.0 mb 0.00 in0.0 mm 0.00 in/hr0.0 mm/hr 0.00 in0.0 mm
01:08 AM 54.5°F12.5°C 27.5°F-2.5°C 35% 4.0 mph N6.4 kmh N 5.4 mph8.7 kmh 25.19 in853.0 mb 0.00 in0.0 mm 0.00 in/hr0.0 mm/hr 0.00 in0.0 mm
01:13 AM 52.2°F11.2°C 26.1°F-3.3°C 36% 4.0 mph 6.4 kmh 6.3 mph10.1 kmh 25.19 in853.0 mb 0.00 in0.0 mm 0.00 in/hr0.0 mm/hr 0.00 in0.0 mm
01:18 AM 51.8°F11.0°C 27.7°F-2.4°C 39% 5.0 mph NNW8.0 kmh NNW 8.3 mph13.4 kmh 25.19 in853.0 mb 0.00 in0.0 mm 0.00 in/hr0.0 mm/hr 0.00 in0.0 mm
01:23 AM 52.5°F11.4°C 27.7°F-2.4°C 38% 5.0 mph NW8.0 kmh NW 8.3 mph13.4 kmh 25.19 in853.0 mb 0.00 in0.0 mm 0.00 in/hr0.0 mm/hr 0.00 in0.0 mm
01:28 AM 51.4°F10.8°C 26.6°F-3.0°C 38% 3.0 mph NNW4.8 kmh NNW 3.6 mph5.8 kmh 25.19 in853.0 mb 0.00 in0.0 mm 0.00 in/hr0.0 mm/hr 0.00 in0.0 mm
01:33 AM 50.0°F10.0°C 26.6°F-3.0°C 40% 2.0 mph NNW3.2 kmh NNW 3.6 mph5.8 kmh 25.19 in853.0 mb 0.00 in0.0 mm 0.00 in/hr0.0 mm/hr 0.00 in0.0 mm
01:38 AM 48.4°F9.1°C 26.4°F-3.1°C 42% 2.0 mph NNW3.2 kmh NNW 4.5 mph7.2 kmh 25.19 in853.0 mb 0.00 in0.0 mm 0.00 in/hr0.0 mm/hr 0.00 in0.0 mm
01:43 AM 48.4°F9.1°C 28.6°F-1.9°C 46% 2.0 mph NNW3.2 kmh NNW 4.0 mph6.4 kmh 25.19 in853.0 mb 0.00 in0.0 mm 0.00 in/hr0.0 mm/hr 0.00 in0.0 mm
01:48 AM 48.7°F9.3°C 30.0°F-1.1°C 48% 3.0 mph NNW4.8 kmh NNW 4.5 mph7.2 kmh 25.19 in853.0 mb 0.00 in0.0 mm 0.00 in/hr0.0 mm/hr 0.00 in0.0 mm
01:53 AM 48.7°F9.3°C 30.4°F-0.9°C 49% 4.0 mph N6.4 kmh N 6.3 mph10.1 kmh 25.19 in853.0 mb 0.00 in0.0 mm 0.00 in/hr0.0 mm/hr 0.00 in0.0 mm
01:58 AM 48.2°F9.0°C 30.4°F-0.9°C 50% 5.0 mph N8.0 kmh N 6.3 mph10.1 kmh 25.19 in853.0 mb 0.00 in0.0 mm 0.00 in/hr0.0 mm/hr 0.00 in0.0 mm
02:03 AM 48.9°F9.4°C 31.6°F-0.2°C 51% 5.0 mph N8.0 kmh N 6.7 mph10.8 kmh 25.19 in853.0 mb 0.00 in0.0 mm 0.00 in/hr0.0 mm/hr 0.00 in0.0 mm
02:08 AM 47.7°F8.7°C 30.9°F-0.6°C 52% 4.0 mph N6.4 kmh N 5.4 mph8.7 kmh 25.19 in853.0 mb 0.00 in0.0 mm 0.00 in/hr0.0 mm/hr 0.00 in0.0 mm
02:13 AM 46.9°F8.3°C 31.1°F-0.5°C 54% 3.0 mph NNE4.8 kmh NNE 4.5 mph7.2 kmh 25.19 in853.0 mb 0.00 in0.0 mm 0.00 in/hr0.0 mm/hr 0.00 in0.0 mm
02:18 AM 46.6°F8.1°C 31.8°F-0.1°C 56% 3.0 mph NNE4.8 kmh NNE 4.5 mph7.2 kmh 25.19 in853.0 mb 0.00 in0.0 mm 0.00 in/hr0.0 mm/hr 0.00 in0.0 mm
02:23 AM 46.9°F8.3°C 32.0°F0.0°C 56% 3.0 mph NNE4.8 kmh NNE 4.5 mph7.2 kmh 25.19 in853.0 mb 0.00 in0.0 mm 0.00 in/hr0.0 mm/hr 0.00 in0.0 mm
02:28 AM 49.1°F9.5°C 33.3°F0.7°C 54% 4.0 mph N6.4 kmh N 6.7 mph10.8 kmh 25.19 in853.0 mb 0.00 in0.0 mm 0.00 in/hr0.0 mm/hr 0.00 in0.0 mm
02:33 AM 48.7°F9.3°C 31.5°F-0.3°C 51% 4.0 mph NNW6.4 kmh NNW 5.8 mph9.3 kmh 25.19 in853.0 mb 0.00 in0.0 mm 0.00 in/hr0.0 mm/hr 0.00 in0.0 mm
02:38 AM 48.7°F9.3°C 30.9°F-0.6°C 50% 4.0 mph N6.4 kmh N 5.8 mph9.3 kmh 25.19 in853.0 mb 0.00 in0.0 mm 0.00 in/hr0.0 mm/hr 0.00 in0.0 mm
02:43 AM 48.6°F9.2°C 30.2°F-1.0°C 49% 4.0 mph N6.4 kmh N 4.9 mph7.9 kmh 25.19 in853.0 mb 0.00 in0.0 mm 0.00 in/hr0.0 mm/hr 0.00 in0.0 mm
02:48 AM 47.1°F8.4°C 30.0°F-1.1°C 51% 3.0 mph N4.8 kmh N 4.9 mph7.9 kmh 25.19 in853.0 mb 0.00 in0.0 mm 0.00 in/hr0.0 mm/hr 0.00 in0.0 mm
02:53 AM 46.4°F8.0°C 30.7°F-0.7°C 54% 3.0 mph N4.8 kmh N 5.4 mph8.7 kmh 25.19 in853.0 mb 0.00 in0.0 mm 0.00 in/hr0.0 mm/hr 0.00 in0.0 mm
02:58 AM 46.4°F8.0°C 31.1°F-0.5°C 55% 3.0 mph NNE4.8 kmh NNE 4.5 mph7.2 kmh 25.19 in853.0 mb 0.00 in0.0 mm 0.00 in/hr0.0 mm/hr 0.00 in0.0 mm
03:03 AM 46.4°F8.0°C 31.1°F-0.5°C 55% 2.0 mph NNE3.2 kmh NNE 3.6 mph5.8 kmh 25.19 in853.0 mb 0.00 in0.0 mm 0.00 in/hr0.0 mm/hr 0.00 in0.0 mm
03:08 AM 46.9°F8.3°C 31.6°F-0.2°C 55% Calm Calm 2.7 mph4.3 kmh 25.19 in853.0 mb 0.00 in0.0 mm 0.00 in/hr0.0 mm/hr 0.00 in0.0 mm
03:13 AM 46.4°F8.0°C 30.7°F-0.7°C 54% Calm Calm -- 25.19 in853.0 mb 0.00 in0.0 mm 0.00 in/hr0.0 mm/hr 0.00 in0.0 mm
03:18 AM 46.4°F8.0°C 31.1°F-0.5°C 55% Calm Calm -- 25.19 in853.0 mb 0.00 in0.0 mm 0.00 in/hr0.0 mm/hr 0.00 in0.0 mm
03:23 AM 46.6°F8.1°C 31.3°F-0.4°C 55% Calm Calm -- 25.19 in853.0 mb 0.00 in0.0 mm 0.00 in/hr0.0 mm/hr 0.00 in0.0 mm
03:28 AM 47.8°F8.8°C 31.5°F-0.3°C 53% Calm Calm -- 25.19 in853.0 mb 0.00 in0.0 mm 0.00 in/hr0.0 mm/hr 0.00 in0.0 mm
03:33 AM 48.7°F9.3°C 30.4°F-0.9°C 49% Calm Calm -- 25.19 in853.0 mb 0.00 in0.0 mm 0.00 in/hr0.0 mm/hr 0.00 in0.0 mm
03:38 AM 48.0°F8.9°C 29.3°F-1.5°C 48% Calm Calm -- 25.19 in853.0 mb 0.00 in0.0 mm 0.00 in/hr0.0 mm/hr 0.00 in0.0 mm
03:43 AM 48.2°F9.0°C 30.0°F-1.1°C 49% Calm Calm 3.6 mph5.8 kmh 25.19 in853.0 mb 0.00 in0.0 mm 0.00 in/hr0.0 mm/hr 0.00 in0.0 mm
03:48 AM 48.4°F9.1°C 29.7°F-1.3°C 48% 1.0 mph NNE1.6 kmh NNE 4.0 mph6.4 kmh 25.19 in853.0 mb 0.00 in0.0 mm 0.00 in/hr0.0 mm/hr 0.00 in0.0 mm
03:53 AM 48.0°F8.9°C 29.3°F-1.5°C 48% 3.0 mph NNE4.8 kmh NNE 4.0 mph6.4 kmh 25.19 in853.0 mb 0.00 in0.0 mm 0.00 in/hr0.0 mm/hr 0.00 in0.0 mm
03:58 AM 47.3°F8.5°C 29.1°F-1.6°C 49% 2.0 mph NNE3.2 kmh NNE 3.6 mph5.8 kmh 25.19 in853.0 mb 0.00 in0.0 mm 0.00 in/hr0.0 mm/hr 0.00 in0.0 mm
04:03 AM 46.2°F7.9°C 29.1°F-1.6°C 51% 2.0 mph NNE3.2 kmh NNE 4.9 mph7.9 kmh 25.19 in853.0 mb 0.00 in0.0 mm 0.00 in/hr0.0 mm/hr 0.00 in0.0 mm
04:08 AM 45.7°F7.6°C 29.5°F-1.4°C 53% 3.0 mph NNE4.8 kmh NNE 4.9 mph7.9 kmh 25.22 in854.0 mb 0.00 in0.0 mm 0.00 in/hr0.0 mm/hr 0.00 in0.0 mm
04:13 AM 47.3°F8.5°C 32.0°F0.0°C 55% 4.0 mph NNE6.4 kmh NNE 5.8 mph9.3 kmh 25.22 in854.0 mb 0.00 in0.0 mm 0.00 in/hr0.0 mm/hr 0.00 in0.0 mm
04:18 AM 47.3°F8.5°C 31.5°F-0.3°C 54% 4.0 mph N6.4 kmh N 4.9 mph7.9 kmh 25.22 in854.0 mb 0.00 in0.0 mm 0.00 in/hr0.0 mm/hr 0.00 in0.0 mm
04:23 AM 47.1°F8.4°C 31.8°F-0.1°C 55% 4.0 mph N6.4 kmh N 5.4 mph8.7 kmh 25.19 in853.0 mb 0.00 in0.0 mm 0.00 in/hr0.0 mm/hr 0.00 in0.0 mm
04:28 AM 46.9°F8.3°C 31.6°F-0.2°C 55% 4.0 mph N6.4 kmh N 5.4 mph8.7 kmh 25.19 in853.0 mb 0.00 in0.0 mm 0.00 in/hr0.0 mm/hr 0.00 in0.0 mm
04:33 AM 46.8°F8.2°C 31.5°F-0.3°C 55% 4.0 mph N6.4 kmh N 6.9 mph11.1 kmh 25.19 in853.0 mb 0.00 in0.0 mm 0.00 in/hr0.0 mm/hr 0.00 in0.0 mm
04:38 AM 45.5°F7.5°C 31.1°F-0.5°C 57% 5.0 mph N8.0 kmh N 6.7 mph10.8 kmh 25.22 in854.0 mb 0.00 in0.0 mm 0.00 in/hr0.0 mm/hr 0.00 in0.0 mm
04:43 AM 44.6°F7.0°C 30.7°F-0.7°C 58% 3.0 mph NNE4.8 kmh NNE 5.4 mph8.7 kmh 25.22 in854.0 mb 0.00 in0.0 mm 0.00 in/hr0.0 mm/hr 0.00 in0.0 mm
04:48 AM 45.1°F7.3°C 31.6°F-0.2°C 59% 3.0 mph NE4.8 kmh NE 6.3 mph10.1 kmh 25.22 in854.0 mb 0.00 in0.0 mm 0.00 in/hr0.0 mm/hr 0.00 in0.0 mm
04:53 AM 45.1°F7.3°C 31.3°F-0.4°C 58% 3.0 mph NE4.8 kmh NE 5.8 mph9.3 kmh 25.22 in854.0 mb 0.00 in0.0 mm 0.00 in/hr0.0 mm/hr 0.00 in0.0 mm
04:58 AM 45.5°F7.5°C 31.6°F-0.2°C 58% 3.0 mph NE4.8 kmh NE 6.9 mph11.1 kmh 25.22 in854.0 mb 0.00 in0.0 mm 0.00 in/hr0.0 mm/hr 0.00 in0.0 mm
05:03 AM 47.7°F8.7°C 31.8°F-0.1°C 54% 5.0 mph NNE8.0 kmh NNE 7.4 mph11.9 kmh 25.22 in854.0 mb 0.00 in0.0 mm 0.00 in/hr0.0 mm/hr 0.00 in0.0 mm
05:08 AM 48.7°F9.3°C 30.9°F-0.6°C 50% 5.0 mph N8.0 kmh N 6.7 mph10.8 kmh 25.22 in854.0 mb 0.00 in0.0 mm 0.00 in/hr0.0 mm/hr 0.00 in0.0 mm
05:13 AM 48.9°F9.4°C 30.0°F-1.1°C 48% 5.0 mph N8.0 kmh N 6.3 mph10.1 kmh 25.22 in854.0 mb 0.00 in0.0 mm 0.00 in/hr0.0 mm/hr 0.00 in0.0 mm
05:18 AM 49.6°F9.8°C 30.2°F-1.0°C 47% 4.0 mph N6.4 kmh N 6.3 mph10.1 kmh 25.22 in854.0 mb 0.00 in0.0 mm 0.00 in/hr0.0 mm/hr 0.00 in0.0 mm
05:23 AM 50.4°F10.2°C 30.4°F-0.9°C 46% 4.0 mph N6.4 kmh N 8.7 mph14.0 kmh 25.22 in854.0 mb 0.00 in0.0 mm 0.00 in/hr0.0 mm/hr 0.00 in0.0 mm
05:28 AM 50.5°F10.3°C 29.5°F-1.4°C 44% 5.0 mph N8.0 kmh N 8.3 mph13.4 kmh 25.22 in854.0 mb 0.00 in0.0 mm 0.00 in/hr0.0 mm/hr 0.00 in0.0 mm
05:33 AM 50.5°F10.3°C 29.5°F-1.4°C 44% 6.0 mph N9.7 kmh N 7.8 mph12.6 kmh 25.22 in854.0 mb 0.00 in0.0 mm 0.00 in/hr0.0 mm/hr 0.00 in0.0 mm
05:38 AM 50.2°F10.1°C 28.6°F-1.9°C 43% 6.0 mph NNW9.7 kmh NNW 8.7 mph14.0 kmh 25.22 in854.0 mb 0.00 in0.0 mm 0.00 in/hr0.0 mm/hr 0.00 in0.0 mm
05:43 AM 49.3°F9.6°C 28.2°F-2.1°C 44% 5.0 mph NNW8.0 kmh NNW 7.8 mph12.6 kmh 25.22 in854.0 mb 0.00 in0.0 mm 0.00 in/hr0.0 mm/hr 0.00 in0.0 mm
05:49 AM 48.4°F9.1°C 29.1°F-1.6°C 47% 5.0 mph NW8.0 kmh NW 6.3 mph10.1 kmh 25.22 in854.0 mb 0.00 in0.0 mm 0.00 in/hr0.0 mm/hr 0.00 in0.0 mm
05:54 AM 47.7°F8.7°C 28.9°F-1.7°C 48% 4.0 mph NNW6.4 kmh NNW 5.4 mph8.7 kmh 25.22 in854.0 mb 0.00 in0.0 mm 0.00 in/hr0.0 mm/hr 0.00 in0.0 mm
05:59 AM 47.3°F8.5°C 29.7°F-1.3°C 50% 4.0 mph N6.4 kmh N 5.8 mph9.3 kmh 25.22 in854.0 mb 0.00 in0.0 mm 0.00 in/hr0.0 mm/hr 0.00 in0.0 mm
06:04 AM 46.2°F7.9°C 29.7°F-1.3°C 52% 4.0 mph NNE6.4 kmh NNE 4.9 mph7.9 kmh 25.22 in854.0 mb 0.00 in0.0 mm 0.00 in/hr0.0 mm/hr 0.00 in0.0 mm
06:09 AM 45.0°F7.2°C 28.9°F-1.7°C 53% 3.0 mph NE4.8 kmh NE 5.4 mph8.7 kmh 25.22 in854.0 mb 0.00 in0.0 mm 0.00 in/hr0.0 mm/hr 0.00 in0.0 mm
06:14 AM 45.0°F7.2°C 29.8°F-1.2°C 55% 2.0 mph NE3.2 kmh NE 6.7 mph10.8 kmh 25.22 in854.0 mb 0.00 in0.0 mm 0.00 in/hr0.0 mm/hr 0.00 in0.0 mm
06:19 AM 45.5°F7.5°C 30.2°F-1.0°C 55% 2.0 mph NE3.2 kmh NE 5.4 mph8.7 kmh 25.22 in854.0 mb 0.00 in0.0 mm 0.00 in/hr0.0 mm/hr 0.00 in0.0 mm
06:24 AM 45.7°F7.6°C 30.0°F-1.1°C 54% 4.0 mph NNE6.4 kmh NNE 6.7 mph10.8 kmh 25.22 in854.0 mb 0.00 in0.0 mm 0.00 in/hr0.0 mm/hr 0.00 in0.0 mm
06:29 AM 46.2°F7.9°C 30.0°F-1.1°C 53% 4.0 mph NNE6.4 kmh NNE 5.8 mph9.3 kmh 25.22 in854.0 mb 0.00 in0.0 mm 0.00 in/hr0.0 mm/hr 0.00 in0.0 mm
06:34 AM 47.3°F8.5°C 30.6°F-0.8°C 52% 4.0 mph N6.4 kmh N 7.4 mph11.9 kmh 25.22 in854.0 mb 0.00 in0.0 mm 0.00 in/hr0.0 mm/hr 0.00 in0.0 mm
06:39 AM 48.9°F9.4°C 30.6°F-0.8°C 49% 5.0 mph N8.0 kmh N 7.4 mph11.9 kmh 25.22 in854.0 mb 0.00 in0.0 mm 0.00 in/hr0.0 mm/hr 0.00 in0.0 mm
06:44 AM 48.4°F9.1°C 29.7°F-1.3°C 48% 5.0 mph N8.0 kmh N 6.9 mph11.1 kmh 25.22 in854.0 mb 0.00 in0.0 mm 0.00 in/hr0.0 mm/hr 0.00 in0.0 mm
06:49 AM 48.4°F9.1°C 29.7°F-1.3°C 48% 4.0 mph NNE6.4 kmh NNE 5.8 mph9.3 kmh 25.22 in854.0 mb 0.00 in0.0 mm 0.00 in/hr0.0 mm/hr 0.00 in0.0 mm
06:54 AM 48.7°F9.3°C 30.0°F-1.1°C 48% 4.0 mph NNE6.4 kmh NNE 6.7 mph10.8 kmh 25.22 in854.0 mb 0.00 in0.0 mm 0.00 in/hr0.0 mm/hr 0.00 in0.0 mm
06:59 AM 48.9°F9.4°C 29.7°F-1.3°C 47% 4.0 mph N6.4 kmh N 7.4 mph11.9 kmh 25.22 in854.0 mb 0.00 in0.0 mm 0.00 in/hr0.0 mm/hr 0.00 in0.0 mm
07:04 AM 48.2°F9.0°C 29.5°F-1.4°C 48% 5.0 mph NNW8.0 kmh NNW 7.4 mph11.9 kmh 25.22 in854.0 mb 0.00 in0.0 mm 0.00 in/hr0.0 mm/hr 0.00 in0.0 mm
07:09 AM 47.8°F8.8°C 29.7°F-1.3°C 49% 5.0 mph NW8.0 kmh NW 6.9 mph11.1 kmh 25.22 in854.0 mb 0.00 in0.0 mm 0.00 in/hr0.0 mm/hr 0.00 in0.0 mm
07:14 AM 47.1°F8.4°C 29.5°F-1.4°C 50% 5.0 mph NW8.0 kmh NW 6.9 mph11.1 kmh 25.22 in854.0 mb 0.00 in0.0 mm 0.00 in/hr0.0 mm/hr 0.00 in0.0 mm
07:19 AM 46.0°F7.8°C 29.8°F-1.2°C 53% 5.0 mph NW8.0 kmh NW 9.2 mph14.8 kmh 25.22 in854.0 mb 0.00 in0.0 mm 0.00 in/hr0.0 mm/hr 0.00 in0.0 mm
07:24 AM 45.5°F7.5°C 30.7°F-0.7°C 56% 6.0 mph NW9.7 kmh NW 7.8 mph12.6 kmh 25.22 in854.0 mb 0.00 in0.0 mm 0.00 in/hr0.0 mm/hr 0.00 in0.0 mm
07:29 AM 45.5°F7.5°C 31.1°F-0.5°C 57% 6.0 mph NW9.7 kmh NW 7.8 mph12.6 kmh 25.22 in854.0 mb 0.00 in0.0 mm 0.00 in/hr0.0 mm/hr 0.00 in0.0 mm
07:34 AM 45.5°F7.5°C 31.1°F-0.5°C 57% 5.0 mph NNW8.0 kmh NNW 6.3 mph10.1 kmh 25.22 in854.0 mb 0.00 in0.0 mm 0.00 in/hr0.0 mm/hr 0.00 in0.0 mm
07:39 AM 45.1°F7.3°C 30.7°F-0.7°C 57% 3.0 mph N4.8 kmh N 4.9 mph7.9 kmh 25.22 in854.0 mb 0.00 in0.0 mm 0.00 in/hr0.0 mm/hr 0.00 in0.0 mm
07:44 AM 44.8°F7.1°C 30.9°F-0.6°C 58% 1.0 mph N1.6 kmh N 4.5 mph7.2 kmh 25.22 in854.0 mb 0.00 in0.0 mm 0.00 in/hr0.0 mm/hr 0.00 in0.0 mm
07:49 AM 44.6°F7.0°C 31.1°F-0.5°C 59% Calm Calm 4.0 mph6.4 kmh 25.22 in854.0 mb 0.00 in0.0 mm 0.00 in/hr0.0 mm/hr 0.00 in0.0 mm
07:54 AM 44.4°F6.9°C 30.9°F-0.6°C 59% 1.0 mph NNE1.6 kmh NNE 4.0 mph6.4 kmh 25.25 in855.1 mb 0.00 in0.0 mm 0.00 in/hr0.0 mm/hr 0.00 in0.0 mm
07:59 AM 44.1°F6.7°C 30.7°F-0.7°C 59% 2.0 mph NNE3.2 kmh NNE 4.9 mph7.9 kmh 25.25 in855.1 mb 0.00 in0.0 mm 0.00 in/hr0.0 mm/hr 0.00 in0.0 mm
08:04 AM 44.1°F6.7°C 31.5°F-0.3°C 61% 2.0 mph NNE3.2 kmh NNE 4.0 mph6.4 kmh 25.25 in855.1 mb 0.00 in0.0 mm 0.00 in/hr0.0 mm/hr 0.00 in0.0 mm
08:09 AM 44.4°F6.9°C 31.8°F-0.1°C 61% 1.0 mph NNE1.6 kmh NNE 4.9 mph7.9 kmh 25.25 in855.1 mb 0.00 in0.0 mm 0.00 in/hr0.0 mm/hr 0.00 in0.0 mm
08:14 AM 44.4°F6.9°C 31.8°F-0.1°C 61% 3.0 mph NNE4.8 kmh NNE 6.3 mph10.1 kmh 25.25 in855.1 mb 0.00 in0.0 mm 0.00 in/hr0.0 mm/hr 0.00 in0.0 mm
08:19 AM 45.0°F7.2°C 32.7°F0.4°C 62% 4.0 mph NNE6.4 kmh NNE 6.3 mph10.1 kmh 25.25 in855.1 mb 0.00 in0.0 mm 0.00 in/hr0.0 mm/hr 0.00 in0.0 mm
08:24 AM 46.2°F7.9°C 33.4°F0.8°C 61% 4.0 mph NE6.4 kmh NE 6.3 mph10.1 kmh 25.25 in855.1 mb 0.00 in0.0 mm 0.00 in/hr0.0 mm/hr 0.00 in0.0 mm
08:29 AM 47.5°F8.6°C 33.8°F1.0°C 59% 4.0 mph NE6.4 kmh NE 6.7 mph10.8 kmh 25.25 in855.1 mb 0.00 in0.0 mm 0.00 in/hr0.0 mm/hr 0.00 in0.0 mm
08:34 AM 49.5°F9.7°C 34.0°F1.1°C 55% 4.0 mph NE6.4 kmh NE 7.4 mph11.9 kmh 25.25 in855.1 mb 0.00 in0.0 mm 0.00 in/hr0.0 mm/hr 0.00 in0.0 mm
08:39 AM 50.9°F10.5°C 32.4°F0.2°C 49% 5.0 mph NE8.0 kmh NE 9.6 mph15.4 kmh 25.25 in855.1 mb 0.00 in0.0 mm 0.00 in/hr0.0 mm/hr 0.00 in0.0 mm
08:44 AM 51.8°F11.0°C 31.1°F-0.5°C 45% 6.0 mph NNE9.7 kmh NNE 10.1 mph16.3 kmh 25.25 in855.1 mb 0.00 in0.0 mm 0.00 in/hr0.0 mm/hr 0.00 in0.0 mm
08:49 AM 52.0°F11.1°C 30.7°F-0.7°C 44% 6.0 mph NNE9.7 kmh NNE 11.0 mph17.7 kmh 25.25 in855.1 mb 0.00 in0.0 mm 0.00 in/hr0.0 mm/hr 0.00 in0.0 mm
08:54 AM 52.0°F11.1°C 30.7°F-0.7°C 44% 7.0 mph N11.3 kmh N 12.5 mph20.1 kmh 25.25 in855.1 mb 0.00 in0.0 mm 0.00 in/hr0.0 mm/hr 0.00 in0.0 mm
08:59 AM 52.5°F11.4°C 30.7°F-0.7°C 43% 7.0 mph N11.3 kmh N 10.5 mph16.9 kmh 25.25 in855.1 mb 0.00 in0.0 mm 0.00 in/hr0.0 mm/hr 0.00 in0.0 mm
09:04 AM 52.9°F11.6°C 29.8°F-1.2°C 41% 7.0 mph N11.3 kmh N 9.2 mph14.8 kmh 25.25 in855.1 mb 0.00 in0.0 mm 0.00 in/hr0.0 mm/hr 0.00 in0.0 mm
09:09 AM 53.1°F11.7°C 29.3°F-1.5°C 40% 6.0 mph N9.7 kmh N 10.1 mph16.3 kmh 25.25 in855.1 mb 0.00 in0.0 mm 0.00 in/hr0.0 mm/hr 0.00 in0.0 mm
09:14 AM 54.0°F12.2°C 30.2°F-1.0°C 40% 6.0 mph NNE9.7 kmh NNE 10.5 mph16.9 kmh 25.25 in855.1 mb 0.00 in0.0 mm 0.00 in/hr0.0 mm/hr 0.00 in0.0 mm
09:19 AM 52.9°F11.6°C 28.6°F-1.9°C 39% 7.0 mph NNE11.3 kmh NNE 11.6 mph18.7 kmh 25.25 in855.1 mb 0.00 in0.0 mm 0.00 in/hr0.0 mm/hr 0.00 in0.0 mm
09:24 AM 52.9°F11.6°C 29.3°F-1.5°C 40% 8.0 mph NNE12.9 kmh NNE 11.6 mph18.7 kmh 25.25 in855.1 mb 0.00 in0.0 mm 0.00 in/hr0.0 mm/hr 0.00 in0.0 mm
09:29 AM 53.6°F12.0°C 29.8°F-1.2°C 40% 8.0 mph NNE12.9 kmh NNE 11.2 mph18.0 kmh 25.25 in855.1 mb 0.00 in0.0 mm 0.00 in/hr0.0 mm/hr 0.00 in0.0 mm
09:34 AM 52.7°F11.5°C 29.1°F-1.6°C 40% 8.0 mph N12.9 kmh N 12.1 mph19.5 kmh 25.25 in855.1 mb 0.00 in0.0 mm 0.00 in/hr0.0 mm/hr 0.00 in0.0 mm
09:39 AM 52.7°F11.5°C 29.1°F-1.6°C 40% 8.0 mph 12.9 kmh 11.6 mph18.7 kmh 25.25 in855.1 mb 0.00 in0.0 mm 0.00 in/hr0.0 mm/hr 0.00 in0.0 mm
09:44 AM 52.5°F11.4°C 29.5°F-1.4°C 41% 8.0 mph N12.9 kmh N 11.6 mph18.7 kmh 25.25 in855.1 mb 0.00 in0.0 mm 0.00 in/hr0.0 mm/hr 0.00 in0.0 mm
09:49 AM 53.1°F11.7°C 30.0°F-1.1°C 41% 6.0 mph N9.7 kmh N 9.6 mph15.4 kmh 25.25 in855.1 mb 0.00 in0.0 mm 0.00 in/hr0.0 mm/hr 0.00 in0.0 mm
09:54 AM 53.2°F11.8°C 30.2°F-1.0°C 41% 5.0 mph NNW8.0 kmh NNW 7.4 mph11.9 kmh 25.25 in855.1 mb 0.00 in0.0 mm 0.00 in/hr0.0 mm/hr 0.00 in0.0 mm
09:59 AM 54.3°F12.4°C 31.1°F-0.5°C 41% 5.0 mph NNW8.0 kmh NNW 7.4 mph11.9 kmh 25.25 in855.1 mb 0.00 in0.0 mm 0.00 in/hr0.0 mm/hr 0.00 in0.0 mm
10:04 AM 54.5°F12.5°C 30.7°F-0.7°C 40% 5.0 mph NNW8.0 kmh NNW 7.4 mph11.9 kmh 25.25 in855.1 mb 0.00 in0.0 mm 0.00 in/hr0.0 mm/hr 0.00 in0.0 mm
10:09 AM 55.2°F12.9°C 30.0°F-1.1°C 38% 5.0 mph N8.0 kmh N 7.4 mph11.9 kmh 25.25 in855.1 mb 0.00 in0.0 mm 0.00 in/hr0.0 mm/hr 0.00 in0.0 mm
10:14 AM 55.9°F13.3°C 30.0°F-1.1°C 37% 3.0 mph N4.8 kmh N 5.4 mph8.7 kmh 25.25 in855.1 mb 0.00 in0.0 mm 0.00 in/hr0.0 mm/hr 0.00 in0.0 mm
10:19 AM 56.7°F13.7°C 30.0°F-1.1°C 36% 3.0 mph N4.8 kmh N 7.8 mph12.6 kmh 25.25 in855.1 mb 0.00 in0.0 mm 0.00 in/hr0.0 mm/hr 0.00 in0.0 mm
10:24 AM 55.2°F12.9°C 29.5°F-1.4°C 37% 6.0 mph NNW9.7 kmh NNW 10.1 mph16.3 kmh 25.28 in856.1 mb 0.00 in0.0 mm 0.00 in/hr0.0 mm/hr 0.00 in0.0 mm
10:29 AM 56.1°F13.4°C 30.2°F-1.0°C 37% 7.0 mph N11.3 kmh N 11.2 mph18.0 kmh 25.28 in856.1 mb 0.00 in0.0 mm 0.00 in/hr0.0 mm/hr 0.00 in0.0 mm
10:34 AM 56.1°F13.4°C 30.2°F-1.0°C 37% 8.0 mph NNW12.9 kmh NNW 12.5 mph20.1 kmh 25.28 in856.1 mb 0.00 in0.0 mm 0.00 in/hr0.0 mm/hr 0.00 in0.0 mm
10:39 AM 56.8°F13.8°C 30.2°F-1.0°C 36% 8.0 mph N12.9 kmh N 12.1 mph19.5 kmh 25.28 in856.1 mb 0.00 in0.0 mm 0.00 in/hr0.0 mm/hr 0.00 in0.0 mm
10:44 AM 57.4°F14.1°C 30.0°F-1.1°C 35% 7.0 mph N11.3 kmh N 10.5 mph16.9 kmh 25.28 in856.1 mb 0.00 in0.0 mm 0.00 in/hr0.0 mm/hr 0.00 in0.0 mm
10:49 AM 57.6°F14.2°C 30.2°F-1.0°C 35% 7.0 mph N11.3 kmh N 10.5 mph16.9 kmh 25.28 in856.1 mb 0.00 in0.0 mm 0.00 in/hr0.0 mm/hr 0.00 in0.0 mm
10:54 AM 57.7°F14.3°C 29.5°F-1.4°C 34% 7.0 mph N11.3 kmh N 10.1 mph16.3 kmh 25.28 in856.1 mb 0.00 in0.0 mm 0.00 in/hr0.0 mm/hr 0.00 in0.0 mm
10:59 AM 59.2°F15.1°C 30.9°F-0.6°C 34% 6.0 mph N9.7 kmh N 10.5 mph16.9 kmh 25.28 in856.1 mb 0.00 in0.0 mm 0.00 in/hr0.0 mm/hr 0.00 in0.0 mm
11:04 AM 59.9°F15.5°C 31.5°F-0.3°C 34% 6.0 mph N9.7 kmh N 11.2 mph18.0 kmh 25.28 in856.1 mb 0.00 in0.0 mm 0.00 in/hr0.0 mm/hr 0.00 in0.0 mm
11:09 AM 59.4°F15.2°C 29.5°F-1.4°C 32% 6.0 mph N9.7 kmh N 9.2 mph14.8 kmh 25.25 in855.1 mb 0.00 in0.0 mm 0.00 in/hr0.0 mm/hr 0.00 in0.0 mm
11:14 AM 59.7°F15.4°C 29.8°F-1.2°C 32% 6.0 mph N9.7 kmh N 8.3 mph13.4 kmh 25.25 in855.1 mb 0.00 in0.0 mm 0.00 in/hr0.0 mm/hr 0.00 in0.0 mm
11:19 AM 60.4°F15.8°C 30.4°F-0.9°C 32% 6.0 mph NNW9.7 kmh NNW 10.1 mph16.3 kmh 25.25 in855.1 mb 0.00 in0.0 mm 0.00 in/hr0.0 mm/hr 0.00 in0.0 mm
11:24 AM 60.6°F15.9°C 28.9°F-1.7°C 30% 6.0 mph N9.7 kmh N 11.2 mph18.0 kmh 25.25 in855.1 mb 0.00 in0.0 mm 0.00 in/hr0.0 mm/hr 0.00 in0.0 mm
11:29 AM 60.4°F15.8°C 28.9°F-1.7°C 30% 6.0 mph N9.7 kmh N 8.7 mph14.0 kmh 25.25 in855.1 mb 0.00 in0.0 mm 0.00 in/hr0.0 mm/hr 0.00 in0.0 mm
11:34 AM 60.6°F15.9°C 28.2°F-2.1°C 29% 6.0 mph N9.7 kmh N 9.6 mph15.4 kmh 25.25 in855.1 mb 0.00 in0.0 mm 0.00 in/hr0.0 mm/hr 0.00 in0.0 mm
11:39 AM 61.9°F16.6°C 29.3°F-1.5°C 29% 6.0 mph N9.7 kmh N 9.2 mph14.8 kmh 25.25 in855.1 mb 0.00 in0.0 mm 0.00 in/hr0.0 mm/hr 0.00 in0.0 mm
11:44 AM 61.5°F16.4°C 28.0°F-2.2°C 28% 6.0 mph N9.7 kmh N 10.5 mph16.9 kmh 25.25 in855.1 mb 0.00 in0.0 mm 0.00 in/hr0.0 mm/hr 0.00 in0.0 mm
11:49 AM 61.9°F16.6°C 28.4°F-2.0°C 28% 6.0 mph N9.7 kmh N 10.5 mph16.9 kmh 25.25 in855.1 mb 0.00 in0.0 mm 0.00 in/hr0.0 mm/hr 0.00 in0.0 mm
11:54 AM 62.4°F16.9°C 28.0°F-2.2°C 27% 6.0 mph N9.7 kmh N 9.2 mph14.8 kmh 25.25 in855.1 mb 0.00 in0.0 mm 0.00 in/hr0.0 mm/hr 0.00 in0.0 mm
11:59 AM 63.7°F17.6°C 29.1°F-1.6°C 27% 6.0 mph N9.7 kmh N 9.6 mph15.4 kmh 25.25 in855.1 mb 0.00 in0.0 mm 0.00 in/hr0.0 mm/hr 0.00 in0.0 mm
12:04 PM 62.8°F17.1°C 27.3°F-2.6°C 26% 6.0 mph N9.7 kmh N 9.2 mph14.8 kmh 25.25 in855.1 mb 0.00 in0.0 mm 0.00 in/hr0.0 mm/hr 0.00 in0.0 mm
12:09 PM 63.1°F17.3°C 27.7°F-2.4°C 26% 5.0 mph NW8.0 kmh NW 6.7 mph10.8 kmh 25.25 in855.1 mb 0.00 in0.0 mm 0.00 in/hr0.0 mm/hr 0.00 in0.0 mm
12:14 PM 64.0°F17.8°C 27.5°F-2.5°C 25% 4.0 mph N6.4 kmh N 8.3 mph13.4 kmh 25.25 in855.1 mb 0.00 in0.0 mm 0.00 in/hr0.0 mm/hr 0.00 in0.0 mm
12:19 PM 64.8°F18.2°C 28.0°F-2.2°C 25% 4.0 mph N6.4 kmh N 8.7 mph14.0 kmh 25.25 in855.1 mb 0.00 in0.0 mm 0.00 in/hr0.0 mm/hr 0.00 in0.0 mm
12:24 PM 64.2°F17.9°C 26.6°F-3.0°C 24% 4.0 mph NNW6.4 kmh NNW 8.3 mph13.4 kmh 25.22 in854.0 mb 0.00 in0.0 mm 0.00 in/hr0.0 mm/hr 0.00 in0.0 mm
12:29 PM 64.9°F18.3°C 27.3°F-2.6°C 24% 5.0 mph NNW8.0 kmh NNW 8.7 mph14.0 kmh 25.22 in854.0 mb 0.00 in0.0 mm 0.00 in/hr0.0 mm/hr 0.00 in0.0 mm
12:34 PM 65.7°F18.7°C 26.8°F-2.9°C 23% 4.0 mph N6.4 kmh N 5.4 mph8.7 kmh 25.22 in854.0 mb 0.00 in0.0 mm 0.00 in/hr0.0 mm/hr 0.00 in0.0 mm
12:39 PM 66.0°F18.9°C 27.1°F-2.7°C 23% 3.0 mph NNE4.8 kmh NNE 6.9 mph11.1 kmh 25.22 in854.0 mb 0.00 in0.0 mm 0.00 in/hr0.0 mm/hr 0.00 in0.0 mm
12:44 PM 66.6°F19.2°C 27.7°F-2.4°C 23% 3.0 mph NNE4.8 kmh NNE 6.3 mph10.1 kmh 25.22 in854.0 mb 0.00 in0.0 mm 0.00 in/hr0.0 mm/hr 0.00 in0.0 mm
12:49 PM 66.9°F19.4°C 26.8°F-2.9°C 22% 3.0 mph N4.8 kmh N 7.4 mph11.9 kmh 25.22 in854.0 mb 0.00 in0.0 mm 0.00 in/hr0.0 mm/hr 0.00 in0.0 mm
12:54 PM 66.4°F19.1°C 24.1°F-4.4°C 20% 5.0 mph NNE8.0 kmh NNE 7.8 mph12.6 kmh 25.22 in854.0 mb 0.00 in0.0 mm 0.00 in/hr0.0 mm/hr 0.00 in0.0 mm
12:59 PM 66.6°F19.2°C 24.3°F-4.3°C 20% 4.0 mph NNE6.4 kmh NNE 6.9 mph11.1 kmh 25.22 in854.0 mb 0.00 in0.0 mm 0.00 in/hr0.0 mm/hr 0.00 in0.0 mm
01:04 PM 66.9°F19.4°C 24.6°F-4.1°C 20% 4.0 mph N6.4 kmh N 8.7 mph14.0 kmh 25.22 in854.0 mb 0.00 in0.0 mm 0.00 in/hr0.0 mm/hr 0.00 in0.0 mm
01:09 PM 67.3°F19.6°C 24.8°F-4.0°C 20% 4.0 mph N6.4 kmh N 7.4 mph11.9 kmh 25.22 in854.0 mb 0.00 in0.0 mm 0.00 in/hr0.0 mm/hr 0.00 in0.0 mm
01:14 PM 67.6°F19.8°C 25.2°F-3.8°C 20% 2.0 mph N3.2 kmh N 4.5 mph7.2 kmh 25.22 in854.0 mb 0.00 in0.0 mm 0.00 in/hr0.0 mm/hr 0.00 in0.0 mm
01:19 PM 67.6°F19.8°C 21.2°F-6.0°C 17% 2.0 mph N3.2 kmh N 6.3 mph10.1 kmh 25.22 in854.0 mb 0.00 in0.0 mm 0.00 in/hr0.0 mm/hr 0.00 in0.0 mm
01:24 PM 67.5°F19.7°C 21.2°F-6.0°C 17% 3.0 mph N4.8 kmh N 6.9 mph11.1 kmh 25.22 in854.0 mb 0.00 in0.0 mm 0.00 in/hr0.0 mm/hr 0.00 in0.0 mm
01:29 PM 68.2°F20.1°C 21.7°F-5.7°C 17% 3.0 mph N4.8 kmh N 5.8 mph9.3 kmh 25.22 in854.0 mb 0.00 in0.0 mm 0.00 in/hr0.0 mm/hr 0.00 in0.0 mm
01:34 PM 68.0°F20.0°C 21.6°F-5.8°C 17% 2.0 mph NNW3.2 kmh NNW 6.9 mph11.1 kmh 25.22 in854.0 mb 0.00 in0.0 mm 0.00 in/hr0.0 mm/hr 0.00 in0.0 mm
01:39 PM 68.9°F20.5°C 22.3°F-5.4°C 17% 4.0 mph NNW6.4 kmh NNW 6.9 mph11.1 kmh 25.22 in854.0 mb 0.00 in0.0 mm 0.00 in/hr0.0 mm/hr 0.00 in0.0 mm
01:44 PM 68.9°F20.5°C 19.4°F-7.0°C 15% 4.0 mph N6.4 kmh N 6.3 mph10.1 kmh 25.22 in854.0 mb 0.00 in0.0 mm 0.00 in/hr0.0 mm/hr 0.00 in0.0 mm
01:49 PM 68.2°F20.1°C 18.9°F-7.3°C 15% 4.0 mph N6.4 kmh N 5.4 mph8.7 kmh 25.19 in853.0 mb 0.00 in0.0 mm 0.00 in/hr0.0 mm/hr 0.00 in0.0 mm
01:54 PM 68.5°F20.3°C 19.0°F-7.2°C 15% 4.0 mph N6.4 kmh N 5.8 mph9.3 kmh 25.19 in853.0 mb 0.00 in0.0 mm 0.00 in/hr0.0 mm/hr 0.00 in0.0 mm
01:59 PM 68.9°F20.5°C 17.8°F-7.9°C 14% 3.0 mph N4.8 kmh N 5.4 mph8.7 kmh 25.19 in853.0 mb 0.00 in0.0 mm 0.00 in/hr0.0 mm/hr 0.00 in0.0 mm
02:04 PM 69.3°F20.7°C 18.0°F-7.8°C 14% 3.0 mph N4.8 kmh N 4.9 mph7.9 kmh 25.19 in853.0 mb 0.00 in0.0 mm 0.00 in/hr0.0 mm/hr 0.00 in0.0 mm
02:09 PM 69.1°F20.6°C 22.5°F-5.3°C 17% 3.0 mph NW4.8 kmh NW 7.4 mph11.9 kmh 25.19 in853.0 mb 0.00 in0.0 mm 0.00 in/hr0.0 mm/hr 0.00 in0.0 mm
02:14 PM 69.8°F21.0°C 23.0°F-5.0°C 17% 5.0 mph SW8.0 kmh SW 9.6 mph15.4 kmh 25.19 in853.0 mb 0.00 in0.0 mm 0.00 in/hr0.0 mm/hr 0.00 in0.0 mm
02:19 PM 69.6°F20.9°C 18.3°F-7.6°C 14% 6.0 mph SSW9.7 kmh SSW 10.1 mph16.3 kmh 25.19 in853.0 mb 0.00 in0.0 mm 0.00 in/hr0.0 mm/hr 0.00 in0.0 mm
02:24 PM 70.2°F21.2°C 18.7°F-7.4°C 14% 5.0 mph S8.0 kmh S 8.3 mph13.4 kmh 25.19 in853.0 mb 0.00 in0.0 mm 0.00 in/hr0.0 mm/hr 0.00 in0.0 mm
02:29 PM 70.0°F21.1°C 23.2°F-4.9°C 17% 4.0 mph SE6.4 kmh SE 7.8 mph12.6 kmh 25.19 in853.0 mb 0.00 in0.0 mm 0.00 in/hr0.0 mm/hr 0.00 in0.0 mm
02:34 PM 70.3°F21.3°C 23.5°F-4.7°C 17% 5.0 mph SSE8.0 kmh SSE 10.1 mph16.3 kmh 25.19 in853.0 mb 0.00 in0.0 mm 0.00 in/hr0.0 mm/hr 0.00 in0.0 mm
02:39 PM 70.2°F21.2°C 18.7°F-7.4°C 14% 6.0 mph S9.7 kmh S 8.7 mph14.0 kmh 25.19 in853.0 mb 0.00 in0.0 mm 0.00 in/hr0.0 mm/hr 0.00 in0.0 mm
02:44 PM 70.0°F21.1°C 18.7°F-7.4°C 14% 6.0 mph S9.7 kmh S 10.5 mph16.9 kmh 25.19 in853.0 mb 0.00 in0.0 mm 0.00 in/hr0.0 mm/hr 0.00 in0.0 mm
02:49 PM 70.3°F21.3°C 18.9°F-7.3°C 14% 4.0 mph S6.4 kmh S 7.4 mph11.9 kmh 25.19 in853.0 mb 0.00 in0.0 mm 0.00 in/hr0.0 mm/hr 0.00 in0.0 mm
02:55 PM 69.8°F21.0°C 18.5°F-7.5°C 14% 3.0 mph SSW4.8 kmh SSW 7.4 mph11.9 kmh 25.19 in853.0 mb 0.00 in0.0 mm 0.00 in/hr0.0 mm/hr 0.00 in0.0 mm
03:00 PM 70.0°F21.1°C 15.1°F-9.4°C 12% 4.0 mph SW6.4 kmh SW 7.4 mph11.9 kmh 25.19 in853.0 mb 0.00 in0.0 mm 0.00 in/hr0.0 mm/hr 0.00 in0.0 mm
03:05 PM 70.3°F21.3°C 18.9°F-7.3°C 14% 4.0 mph SW6.4 kmh SW 6.9 mph11.1 kmh 25.19 in853.0 mb 0.00 in0.0 mm 0.00 in/hr0.0 mm/hr 0.00 in0.0 mm
03:10 PM 70.2°F21.2°C 15.3°F-9.3°C 12% 5.0 mph S8.0 kmh S 6.9 mph11.1 kmh 25.19 in853.0 mb 0.00 in0.0 mm 0.00 in/hr0.0 mm/hr 0.00 in0.0 mm
03:15 PM 69.6°F20.9°C 14.7°F-9.6°C 12% 6.0 mph SSW9.7 kmh SSW 10.5 mph16.9 kmh 25.19 in853.0 mb 0.00 in0.0 mm 0.00 in/hr0.0 mm/hr 0.00 in0.0 mm
03:20 PM 70.2°F21.2°C 15.3°F-9.3°C 12% 5.0 mph WSW8.0 kmh WSW 7.8 mph12.6 kmh 25.19 in853.0 mb 0.00 in0.0 mm 0.00 in/hr0.0 mm/hr 0.00 in0.0 mm
03:25 PM 70.2°F21.2°C 18.7°F-7.4°C 14% 4.0 mph WSW6.4 kmh WSW 8.7 mph14.0 kmh 25.19 in853.0 mb 0.00 in0.0 mm 0.00 in/hr0.0 mm/hr 0.00 in0.0 mm
03:30 PM 70.2°F21.2°C 18.7°F-7.4°C 14% 5.0 mph WSW8.0 kmh WSW 9.6 mph15.4 kmh 25.19 in853.0 mb 0.00 in0.0 mm 0.00 in/hr0.0 mm/hr 0.00 in0.0 mm
03:35 PM 70.3°F21.3°C 15.3°F-9.3°C 12% 6.0 mph SW9.7 kmh SW 9.6 mph15.4 kmh 25.16 in852.0 mb 0.00 in0.0 mm 0.00 in/hr0.0 mm/hr 0.00 in0.0 mm
03:40 PM 70.3°F21.3°C 15.3°F-9.3°C 12% 7.0 mph S11.3 kmh S 11.0 mph17.7 kmh 25.16 in852.0 mb 0.00 in0.0 mm 0.00 in/hr0.0 mm/hr 0.00 in0.0 mm
03:45 PM 70.3°F21.3°C 15.3°F-9.3°C 12% 6.0 mph SSW9.7 kmh SSW 8.7 mph14.0 kmh 25.16 in852.0 mb 0.00 in0.0 mm 0.00 in/hr0.0 mm/hr 0.00 in0.0 mm
03:50 PM 70.0°F21.1°C 15.1°F-9.4°C 12% 6.0 mph S9.7 kmh S 8.7 mph14.0 kmh 25.16 in852.0 mb 0.00 in0.0 mm 0.00 in/hr0.0 mm/hr 0.00 in0.0 mm
03:55 PM 69.8°F21.0°C 14.9°F-9.5°C 12% 7.0 mph S11.3 kmh S 11.2 mph18.0 kmh 25.16 in852.0 mb 0.00 in0.0 mm 0.00 in/hr0.0 mm/hr 0.00 in0.0 mm
04:00 PM 69.8°F21.0°C 14.9°F-9.5°C 12% 6.0 mph S9.7 kmh S 10.5 mph16.9 kmh 25.16 in852.0 mb 0.00 in0.0 mm 0.00 in/hr0.0 mm/hr 0.00 in0.0 mm
04:05 PM 69.4°F20.8°C 14.7°F-9.6°C 12% 6.0 mph S9.7 kmh S 7.8 mph12.6 kmh 25.16 in852.0 mb 0.00 in0.0 mm 0.00 in/hr0.0 mm/hr 0.00 in0.0 mm
04:10 PM 69.6°F20.9°C 14.7°F-9.6°C 12% 5.0 mph S8.0 kmh S 9.2 mph14.8 kmh 25.16 in852.0 mb 0.00 in0.0 mm 0.00 in/hr0.0 mm/hr 0.00 in0.0 mm
04:15 PM 69.3°F20.7°C 14.5°F-9.7°C 12% 5.0 mph S8.0 kmh S 8.3 mph13.4 kmh 25.16 in852.0 mb 0.00 in0.0 mm 0.00 in/hr0.0 mm/hr 0.00 in0.0 mm
04:20 PM 69.3°F20.7°C 14.5°F-9.7°C 12% 5.0 mph SSE8.0 kmh SSE 6.9 mph11.1 kmh 25.16 in852.0 mb 0.00 in0.0 mm 0.00 in/hr0.0 mm/hr 0.00 in0.0 mm
04:25 PM 69.1°F20.6°C 14.4°F-9.8°C 12% 5.0 mph SE8.0 kmh SE 7.4 mph11.9 kmh 25.16 in852.0 mb 0.00 in0.0 mm 0.00 in/hr0.0 mm/hr 0.00 in0.0 mm
04:30 PM 69.1°F20.6°C 14.4°F-9.8°C 12% 5.0 mph SE8.0 kmh SE 7.8 mph12.6 kmh 25.16 in852.0 mb 0.00 in0.0 mm 0.00 in/hr0.0 mm/hr 0.00 in0.0 mm
04:35 PM 68.5°F20.3°C 14.0°F-10.0°C 12% 5.0 mph SSE8.0 kmh SSE 6.3 mph10.1 kmh 25.16 in852.0 mb 0.00 in0.0 mm 0.00 in/hr0.0 mm/hr 0.00 in0.0 mm
04:40 PM 68.5°F20.3°C 14.0°F-10.0°C 12% 4.0 mph S6.4 kmh S 6.9 mph11.1 kmh 25.16 in852.0 mb 0.00 in0.0 mm 0.00 in/hr0.0 mm/hr 0.00 in0.0 mm
04:45 PM 68.5°F20.3°C 19.0°F-7.2°C 15% 5.0 mph S8.0 kmh S 6.9 mph11.1 kmh 25.16 in852.0 mb 0.00 in0.0 mm 0.00 in/hr0.0 mm/hr 0.00 in0.0 mm
04:50 PM 68.4°F20.2°C 13.8°F-10.1°C 12% 5.0 mph S8.0 kmh S 6.9 mph11.1 kmh 25.16 in852.0 mb 0.00 in0.0 mm 0.00 in/hr0.0 mm/hr 0.00 in0.0 mm
04:55 PM 68.4°F20.2°C 13.8°F-10.1°C 12% 5.0 mph S8.0 kmh S 6.7 mph10.8 kmh 25.16 in852.0 mb 0.00 in0.0 mm 0.00 in/hr0.0 mm/hr 0.00 in0.0 mm
05:00 PM 68.4°F20.2°C 18.9°F-7.3°C 15% 4.0 mph SSE6.4 kmh SSE 6.9 mph11.1 kmh 25.16 in852.0 mb 0.00 in0.0 mm 0.00 in/hr0.0 mm/hr 0.00 in0.0 mm
05:05 PM 68.0°F20.0°C 18.7°F-7.4°C 15% 4.0 mph SE6.4 kmh SE 6.3 mph10.1 kmh 25.16 in852.0 mb 0.00 in0.0 mm 0.00 in/hr0.0 mm/hr 0.00 in0.0 mm
05:10 PM 67.6°F19.8°C 18.3°F-7.6°C 15% 4.0 mph SE6.4 kmh SE 6.3 mph10.1 kmh 25.16 in852.0 mb 0.00 in0.0 mm 0.00 in/hr0.0 mm/hr 0.00 in0.0 mm
05:15 PM 67.6°F19.8°C 18.3°F-7.6°C 15% 4.0 mph SE6.4 kmh SE 5.8 mph9.3 kmh 25.16 in852.0 mb 0.00 in0.0 mm 0.00 in/hr0.0 mm/hr 0.00 in0.0 mm
05:20 PM 67.8°F19.9°C 18.5°F-7.5°C 15% 4.0 mph SE6.4 kmh SE 5.4 mph8.7 kmh 25.16 in852.0 mb 0.00 in0.0 mm 0.00 in/hr0.0 mm/hr 0.00 in0.0 mm
05:25 PM 67.8°F19.9°C 18.5°F-7.5°C 15% 4.0 mph SE6.4 kmh SE 5.4 mph8.7 kmh 25.16 in852.0 mb 0.00 in0.0 mm 0.00 in/hr0.0 mm/hr 0.00 in0.0 mm
05:30 PM 67.5°F19.7°C 18.1°F-7.7°C 15% 3.0 mph SE4.8 kmh SE 4.9 mph7.9 kmh 25.16 in852.0 mb 0.00 in0.0 mm 0.00 in/hr0.0 mm/hr 0.00 in0.0 mm
05:35 PM 67.1°F19.5°C 18.0°F-7.8°C 15% 3.0 mph SE4.8 kmh SE 5.4 mph8.7 kmh 25.16 in852.0 mb 0.00 in0.0 mm 0.00 in/hr0.0 mm/hr 0.00 in0.0 mm
05:40 PM 66.7°F19.3°C 20.5°F-6.4°C 17% 3.0 mph SE4.8 kmh SE 4.0 mph6.4 kmh 25.16 in852.0 mb 0.00 in0.0 mm 0.00 in/hr0.0 mm/hr 0.00 in0.0 mm
05:45 PM 65.8°F18.8°C 19.8°F-6.8°C 17% 2.0 mph SE3.2 kmh SE 3.1 mph5.0 kmh 25.16 in852.0 mb 0.00 in0.0 mm 0.00 in/hr0.0 mm/hr 0.00 in0.0 mm
05:50 PM 65.1°F18.4°C 23.0°F-5.0°C 20% 1.0 mph SE1.6 kmh SE 3.1 mph5.0 kmh 25.16 in852.0 mb 0.00 in0.0 mm 0.00 in/hr0.0 mm/hr 0.00 in0.0 mm
05:55 PM 64.9°F18.3°C 22.8°F-5.1°C 20% 2.0 mph SE3.2 kmh SE 3.1 mph5.0 kmh 25.16 in852.0 mb 0.00 in0.0 mm 0.00 in/hr0.0 mm/hr 0.00 in0.0 mm
06:00 PM 64.6°F18.1°C 25.9°F-3.4°C 23% 3.0 mph SE4.8 kmh SE 4.0 mph6.4 kmh 25.16 in852.0 mb 0.00 in0.0 mm 0.00 in/hr0.0 mm/hr 0.00 in0.0 mm
06:05 PM 64.2°F17.9°C 25.7°F-3.5°C 23% 3.0 mph SE4.8 kmh SE 3.6 mph5.8 kmh 25.16 in852.0 mb 0.00 in0.0 mm 0.00 in/hr0.0 mm/hr 0.00 in0.0 mm
06:10 PM 63.5°F17.5°C 26.1°F-3.3°C 24% 1.0 mph SE1.6 kmh SE 3.6 mph5.8 kmh 25.16 in852.0 mb 0.00 in0.0 mm 0.00 in/hr0.0 mm/hr 0.00 in0.0 mm
06:15 PM 63.0°F17.2°C 25.7°F-3.5°C 24% Calm Calm 3.6 mph5.8 kmh 25.16 in852.0 mb 0.00 in0.0 mm 0.00 in/hr0.0 mm/hr 0.00 in0.0 mm
06:20 PM 62.4°F16.9°C 26.1°F-3.3°C 25% Calm Calm 3.6 mph5.8 kmh 25.19 in853.0 mb 0.00 in0.0 mm 0.00 in/hr0.0 mm/hr 0.00 in0.0 mm
06:25 PM 61.9°F16.6°C 26.6°F-3.0°C 26% Calm Calm 3.1 mph5.0 kmh 25.19 in853.0 mb 0.00 in0.0 mm 0.00 in/hr0.0 mm/hr 0.00 in0.0 mm
06:30 PM 61.5°F16.4°C 27.1°F-2.7°C 27% 1.0 mph SE1.6 kmh SE 4.0 mph6.4 kmh 25.19 in853.0 mb 0.00 in0.0 mm 0.00 in/hr0.0 mm/hr 0.00 in0.0 mm
06:35 PM 61.0°F16.1°C 26.8°F-2.9°C 27% Calm Calm 2.7 mph4.3 kmh 25.19 in853.0 mb 0.00 in0.0 mm 0.00 in/hr0.0 mm/hr 0.00 in0.0 mm
06:40 PM 60.6°F15.9°C 27.3°F-2.6°C 28% Calm Calm 3.1 mph5.0 kmh 25.19 in853.0 mb 0.00 in0.0 mm 0.00 in/hr0.0 mm/hr 0.00 in0.0 mm
06:45 PM 60.4°F15.8°C 27.1°F-2.7°C 28% Calm Calm 3.1 mph5.0 kmh 25.19 in853.0 mb 0.00 in0.0 mm 0.00 in/hr0.0 mm/hr 0.00 in0.0 mm
06:50 PM 60.4°F15.8°C 28.0°F-2.2°C 29% 1.0 mph SE1.6 kmh SE 3.6 mph5.8 kmh 25.19 in853.0 mb 0.00 in0.0 mm 0.00 in/hr0.0 mm/hr 0.00 in0.0 mm
06:55 PM 60.1°F15.6°C 27.7°F-2.4°C 29% Calm Calm 2.7 mph4.3 kmh 25.19 in853.0 mb 0.00 in0.0 mm 0.00 in/hr0.0 mm/hr 0.00 in0.0 mm
07:00 PM 60.1°F15.6°C 27.7°F-2.4°C 29% Calm Calm 4.5 mph7.2 kmh 25.19 in853.0 mb 0.00 in0.0 mm 0.00 in/hr0.0 mm/hr 0.00 in0.0 mm
07:05 PM 60.1°F15.6°C 27.7°F-2.4°C 29% 1.0 mph SE1.6 kmh SE 4.0 mph6.4 kmh 25.19 in853.0 mb 0.00 in0.0 mm 0.00 in/hr0.0 mm/hr 0.00 in0.0 mm
07:10 PM 59.9°F15.5°C 27.5°F-2.5°C 29% Calm Calm 3.1 mph5.0 kmh 25.19 in853.0 mb 0.00 in0.0 mm 0.00 in/hr0.0 mm/hr 0.00 in0.0 mm
07:15 PM 60.1°F15.6°C 27.7°F-2.4°C 29% Calm Calm 4.0 mph6.4 kmh 25.19 in853.0 mb 0.00 in0.0 mm 0.00 in/hr0.0 mm/hr 0.00 in0.0 mm
07:20 PM 60.1°F15.6°C 27.0°F-2.8°C 28% Calm Calm 2.7 mph4.3 kmh 25.19 in853.0 mb 0.00 in0.0 mm 0.00 in/hr0.0 mm/hr 0.00 in0.0 mm
07:25 PM 60.3°F15.7°C 27.0°F-2.8°C 28% Calm Calm -- 25.19 in853.0 mb 0.00 in0.0 mm 0.00 in/hr0.0 mm/hr 0.00 in0.0 mm
07:30 PM 60.4°F15.8°C 27.1°F-2.7°C 28% Calm Calm 3.1 mph5.0 kmh 25.19 in853.0 mb 0.00 in0.0 mm 0.00 in/hr0.0 mm/hr 0.00 in0.0 mm
07:35 PM 60.6°F15.9°C 27.3°F-2.6°C 28% Calm Calm -- 25.19 in853.0 mb 0.00 in0.0 mm 0.00 in/hr0.0 mm/hr 0.00 in0.0 mm
07:40 PM 60.6°F15.9°C 26.4°F-3.1°C 27% Calm Calm 3.1 mph5.0 kmh 25.19 in853.0 mb 0.00 in0.0 mm 0.00 in/hr0.0 mm/hr 0.00 in0.0 mm
07:45 PM 60.4°F15.8°C 27.1°F-2.7°C 28% 1.0 mph SE1.6 kmh SE 6.3 mph10.1 kmh 25.19 in853.0 mb 0.00 in0.0 mm 0.00 in/hr0.0 mm/hr 0.00 in0.0 mm
07:50 PM 60.4°F15.8°C 27.1°F-2.7°C 28% 3.0 mph ESE4.8 kmh ESE 5.4 mph8.7 kmh 25.19 in853.0 mb 0.00 in0.0 mm 0.00 in/hr0.0 mm/hr 0.00 in0.0 mm
07:55 PM 60.1°F15.6°C 27.0°F-2.8°C 28% 3.0 mph E4.8 kmh E 5.4 mph8.7 kmh 25.19 in853.0 mb 0.00 in0.0 mm 0.00 in/hr0.0 mm/hr 0.00 in0.0 mm
08:00 PM 59.7°F15.4°C 26.6°F-3.0°C 28% 2.0 mph E3.2 kmh E 4.5 mph7.2 kmh 25.19 in853.0 mb 0.00 in0.0 mm 0.00 in/hr0.0 mm/hr 0.00 in0.0 mm
08:05 PM 59.7°F15.4°C 27.5°F-2.5°C 29% 1.0 mph E1.6 kmh E 3.1 mph5.0 kmh 25.19 in853.0 mb 0.00 in0.0 mm 0.00 in/hr0.0 mm/hr 0.00 in0.0 mm
08:10 PM 59.7°F15.4°C 27.5°F-2.5°C 29% Calm Calm 2.7 mph4.3 kmh 25.19 in853.0 mb 0.00 in0.0 mm 0.00 in/hr0.0 mm/hr 0.00 in0.0 mm
08:15 PM 59.5°F15.3°C 27.3°F-2.6°C 29% Calm Calm 3.1 mph5.0 kmh 25.19 in853.0 mb 0.00 in0.0 mm 0.00 in/hr0.0 mm/hr 0.00 in0.0 mm
08:20 PM 59.4°F15.2°C 27.9°F-2.3°C 30% 1.0 mph E1.6 kmh E 4.0 mph6.4 kmh 25.19 in853.0 mb 0.00 in0.0 mm 0.00 in/hr0.0 mm/hr 0.00 in0.0 mm
08:25 PM 59.2°F15.1°C 27.7°F-2.4°C 30% 1.0 mph E1.6 kmh E 4.0 mph6.4 kmh 25.19 in853.0 mb 0.00 in0.0 mm 0.00 in/hr0.0 mm/hr 0.00 in0.0 mm
08:30 PM 59.0°F15.0°C 27.7°F-2.4°C 30% 2.0 mph E3.2 kmh E 4.9 mph7.9 kmh 25.19 in853.0 mb 0.00 in0.0 mm 0.00 in/hr0.0 mm/hr 0.00 in0.0 mm
08:35 PM 59.0°F15.0°C 27.7°F-2.4°C 30% 3.0 mph E4.8 kmh E 5.8 mph9.3 kmh 25.19 in853.0 mb 0.00 in0.0 mm 0.00 in/hr0.0 mm/hr 0.00 in0.0 mm
08:40 PM 58.8°F14.9°C 28.2°F-2.1°C 31% 3.0 mph E4.8 kmh E 4.9 mph7.9 kmh 25.19 in853.0 mb 0.00 in0.0 mm 0.00 in/hr0.0 mm/hr 0.00 in0.0 mm
08:45 PM 58.8°F14.9°C 28.2°F-2.1°C 31% 2.0 mph E3.2 kmh E 5.4 mph8.7 kmh 25.19 in853.0 mb 0.00 in0.0 mm 0.00 in/hr0.0 mm/hr 0.00 in0.0 mm
08:50 PM 58.5°F14.7°C 27.9°F-2.3°C 31% 2.0 mph E3.2 kmh E 4.0 mph6.4 kmh 25.19 in853.0 mb 0.00 in0.0 mm 0.00 in/hr0.0 mm/hr 0.00 in0.0 mm
08:55 PM 58.6°F14.8°C 28.0°F-2.2°C 31% 1.0 mph E1.6 kmh E 3.1 mph5.0 kmh 25.19 in853.0 mb 0.00 in0.0 mm 0.00 in/hr0.0 mm/hr 0.00 in0.0 mm
09:00 PM 58.6°F14.8°C 28.0°F-2.2°C 31% Calm Calm 3.6 mph5.8 kmh 25.19 in853.0 mb 0.00 in0.0 mm 0.00 in/hr0.0 mm/hr 0.00 in0.0 mm
09:05 PM 58.6°F14.8°C 28.0°F-2.2°C 31% 1.0 mph E1.6 kmh E 4.0 mph6.4 kmh 25.19 in853.0 mb 0.00 in0.0 mm 0.00 in/hr0.0 mm/hr 0.00 in0.0 mm
09:10 PM 58.5°F14.7°C 27.9°F-2.3°C 31% 2.0 mph E3.2 kmh E 4.9 mph7.9 kmh 25.19 in853.0 mb 0.00 in0.0 mm 0.00 in/hr0.0 mm/hr 0.00 in0.0 mm
09:15 PM 58.3°F14.6°C 27.9°F-2.3°C 31% Calm Calm 2.7 mph4.3 kmh 25.19 in853.0 mb 0.00 in0.0 mm 0.00 in/hr0.0 mm/hr 0.00 in0.0 mm
09:20 PM 58.3°F14.6°C 27.9°F-2.3°C 31% Calm Calm -- 25.19 in853.0 mb 0.00 in0.0 mm 0.00 in/hr0.0 mm/hr 0.00 in0.0 mm
09:25 PM 58.6°F14.8°C 28.9°F-1.7°C 32% 1.0 mph E1.6 kmh E 4.5 mph7.2 kmh 25.19 in853.0 mb 0.00 in0.0 mm 0.00 in/hr0.0 mm/hr 0.00 in0.0 mm
09:30 PM 58.3°F14.6°C 28.6°F-1.9°C 32% 2.0 mph E3.2 kmh E 4.5 mph7.2 kmh 25.19 in853.0 mb 0.00 in0.0 mm 0.00 in/hr0.0 mm/hr 0.00 in0.0 mm
09:35 PM 58.5°F14.7°C 28.8°F-1.8°C 32% 2.0 mph E3.2 kmh E 4.0 mph6.4 kmh 25.19 in853.0 mb 0.00 in0.0 mm 0.00 in/hr0.0 mm/hr 0.00 in0.0 mm
09:41 PM 58.1°F14.5°C 29.1°F-1.6°C 33% 3.0 mph E4.8 kmh E 4.5 mph7.2 kmh 25.19 in853.0 mb 0.00 in0.0 mm 0.00 in/hr0.0 mm/hr 0.00 in0.0 mm
09:46 PM 57.7°F14.3°C 28.8°F-1.8°C 33% 2.0 mph E3.2 kmh E 3.6 mph5.8 kmh 25.19 in853.0 mb 0.00 in0.0 mm 0.00 in/hr0.0 mm/hr 0.00 in0.0 mm
09:51 PM 57.7°F14.3°C 29.5°F-1.4°C 34% 2.0 mph ESE3.2 kmh ESE 6.3 mph10.1 kmh 25.19 in853.0 mb 0.00 in0.0 mm 0.00 in/hr0.0 mm/hr 0.00 in0.0 mm
09:56 PM 57.7°F14.3°C 29.5°F-1.4°C 34% 4.0 mph ESE6.4 kmh ESE 6.7 mph10.8 kmh 25.19 in853.0 mb 0.00 in0.0 mm 0.00 in/hr0.0 mm/hr 0.00 in0.0 mm
10:01 PM 57.4°F14.1°C 29.3°F-1.5°C 34% 2.0 mph SE3.2 kmh SE 3.6 mph5.8 kmh 25.19 in853.0 mb 0.00 in0.0 mm 0.00 in/hr0.0 mm/hr 0.00 in0.0 mm
10:06 PM 57.2°F14.0°C 29.1°F-1.6°C 34% 2.0 mph ESE3.2 kmh ESE 5.4 mph8.7 kmh 25.19 in853.0 mb 0.00 in0.0 mm 0.00 in/hr0.0 mm/hr 0.00 in0.0 mm
10:11 PM 56.8°F13.8°C 29.5°F-1.4°C 35% 2.0 mph E3.2 kmh E 4.5 mph7.2 kmh 25.19 in853.0 mb 0.00 in0.0 mm 0.00 in/hr0.0 mm/hr 0.00 in0.0 mm
10:16 PM 56.8°F13.8°C 29.5°F-1.4°C 35% Calm Calm 3.1 mph5.0 kmh 25.19 in853.0 mb 0.00 in0.0 mm 0.00 in/hr0.0 mm/hr 0.00 in0.0 mm
10:21 PM 57.0°F13.9°C 29.7°F-1.3°C 35% 1.0 mph E1.6 kmh E 5.4 mph8.7 kmh 25.22 in854.0 mb 0.00 in0.0 mm 0.00 in/hr0.0 mm/hr 0.00 in0.0 mm
10:26 PM 56.8°F13.8°C 29.5°F-1.4°C 35% 2.0 mph ESE3.2 kmh ESE 4.5 mph7.2 kmh 25.22 in854.0 mb 0.00 in0.0 mm 0.00 in/hr0.0 mm/hr 0.00 in0.0 mm
10:31 PM 56.8°F13.8°C 29.5°F-1.4°C 35% 2.0 mph SE3.2 kmh SE 4.5 mph7.2 kmh 25.22 in854.0 mb 0.00 in0.0 mm 0.00 in/hr0.0 mm/hr 0.00 in0.0 mm
10:36 PM 57.2°F14.0°C 29.8°F-1.2°C 35% 3.0 mph SE4.8 kmh SE 4.9 mph7.9 kmh 25.22 in854.0 mb 0.00 in0.0 mm 0.00 in/hr0.0 mm/hr 0.00 in0.0 mm
10:41 PM 57.2°F14.0°C 29.8°F-1.2°C 35% 2.0 mph ESE3.2 kmh ESE 5.4 mph8.7 kmh 25.22 in854.0 mb 0.00 in0.0 mm 0.00 in/hr0.0 mm/hr 0.00 in0.0 mm
10:46 PM 56.5°F13.6°C 29.1°F-1.6°C 35% 1.0 mph ESE1.6 kmh ESE 3.1 mph5.0 kmh 25.22 in854.0 mb 0.00 in0.0 mm 0.00 in/hr0.0 mm/hr 0.00 in0.0 mm
10:51 PM 56.3°F13.5°C 28.9°F-1.7°C 35% 1.0 mph ESE1.6 kmh ESE 4.5 mph7.2 kmh 25.19 in853.0 mb 0.00 in0.0 mm 0.00 in/hr0.0 mm/hr 0.00 in0.0 mm
10:56 PM 56.5°F13.6°C 29.8°F-1.2°C 36% 3.0 mph ESE4.8 kmh ESE 4.5 mph7.2 kmh 25.19 in853.0 mb 0.00 in0.0 mm 0.00 in/hr0.0 mm/hr 0.00 in0.0 mm
11:01 PM 57.0°F13.9°C 29.7°F-1.3°C 35% 3.0 mph ESE4.8 kmh ESE 3.6 mph5.8 kmh 25.19 in853.0 mb 0.00 in0.0 mm 0.00 in/hr0.0 mm/hr 0.00 in0.0 mm
11:06 PM 56.3°F13.5°C 28.9°F-1.7°C 35% 1.0 mph ESE1.6 kmh ESE 3.6 mph5.8 kmh 25.19 in853.0 mb 0.00 in0.0 mm 0.00 in/hr0.0 mm/hr 0.00 in0.0 mm
11:11 PM 56.3°F13.5°C 29.7°F-1.3°C 36% Calm Calm -- 25.19 in853.0 mb 0.00 in0.0 mm 0.00 in/hr0.0 mm/hr 0.00 in0.0 mm
11:16 PM 55.6°F13.1°C 29.1°F-1.6°C 36% Calm Calm 3.1 mph5.0 kmh 25.19 in853.0 mb 0.00 in0.0 mm 0.00 in/hr0.0 mm/hr 0.00 in0.0 mm
11:21 PM 55.0°F12.8°C 28.6°F-1.9°C 36% Calm Calm 3.6 mph5.8 kmh 25.22 in854.0 mb 0.00 in0.0 mm 0.00 in/hr0.0 mm/hr 0.00 in0.0 mm
11:26 PM 55.2°F12.9°C 28.8°F-1.8°C 36% 1.0 mph ESE1.6 kmh ESE 3.1 mph5.0 kmh 25.22 in854.0 mb 0.00 in0.0 mm 0.00 in/hr0.0 mm/hr 0.00 in0.0 mm
11:31 PM 55.4°F13.0°C 28.9°F-1.7°C 36% 2.0 mph ESE3.2 kmh ESE 3.6 mph5.8 kmh 25.22 in854.0 mb 0.00 in0.0 mm 0.00 in/hr0.0 mm/hr 0.00 in0.0 mm
11:36 PM 55.6°F13.1°C 29.1°F-1.6°C 36% 2.0 mph ESE3.2 kmh ESE 6.3 mph10.1 kmh 25.22 in854.0 mb 0.00 in0.0 mm 0.00 in/hr0.0 mm/hr 0.00 in0.0 mm
11:41 PM 54.7°F12.6°C 28.2°F-2.1°C 36% 3.0 mph ESE4.8 kmh ESE 5.8 mph9.3 kmh 25.22 in854.0 mb 0.00 in0.0 mm 0.00 in/hr0.0 mm/hr 0.00 in0.0 mm
11:46 PM 53.2°F11.8°C 28.2°F-2.1°C 38% 1.0 mph SE1.6 kmh SE 2.7 mph4.3 kmh 25.22 in854.0 mb 0.00 in0.0 mm 0.00 in/hr0.0 mm/hr 0.00 in0.0 mm
11:51 PM 52.2°F11.2°C 29.8°F-1.2°C 42% 1.0 mph SE1.6 kmh SE 3.6 mph5.8 kmh 25.22 in854.0 mb 0.00 in0.0 mm 0.00 in/hr0.0 mm/hr 0.00 in0.0 mm
11:56 PM 52.5°F11.4°C 30.0°F-1.1°C 42% 1.0 mph SE1.6 kmh SE 3.1 mph5.0 kmh 25.22 in854.0 mb 0.00 in0.0 mm 0.00 in/hr0.0 mm/hr 0.00 in0.0 mm